Terminal Aerodrome Forecast
Issued by NWS Bismarck, ND

Home | Current Version | Previous Version | Graphics & Text | Print | Product List | Glossary On
Versions: 1 2 3 4 5 6 7 8 9 10 11 12 13 14 15 16 17 18
000
FTUS43 KBIS 272337
TAFBIS
TAF
KBIS 272337Z 2800/2824 15015KT P6SM SCT090 SCT200
     FM280200 13011KT P6SM -SHRA VCTS OVC060CB
      TEMPO 2802/2805 5SM -SHRA BR OVC035
     FM280800 12008KT P6SM BKN025
     FM281400 23012KT P6SM BKN035=

USA.gov is the U.S. government's official web portal to all federal, state and local government web resources and services.